sensor_id;sensor_type;location;lat;lon;timestamp;pressure;altitude;pressure_sealevel;temperature;humidity
6034;BME280;3045;43.226;27.858;2023-01-08T00:00:54;21339.72;;;4.78;100.00
6034;BME280;3045;43.226;27.858;2023-01-08T00:03:21;17192.53;;;4.54;100.00
6034;BME280;3045;43.226;27.858;2023-01-08T00:05:48;11157.34;;;4.66;100.00
6034;BME280;3045;43.226;27.858;2023-01-08T00:08:15;9253.47;;;4.71;100.00
6034;BME280;3045;43.226;27.858;2023-01-08T00:10:42;10516.63;;;4.40;100.00
6034;BME280;3045;43.226;27.858;2023-01-08T00:13:09;7981.22;;;4.54;100.00
6034;BME280;3045;43.226;27.858;2023-01-08T00:15:37;7028.59;;;4.47;100.00
6034;BME280;3045;43.226;27.858;2023-01-08T00:18:04;7342.38;;;4.28;100.00
6034;BME280;3045;43.226;27.858;2023-01-08T00:20:30;5442.00;;;4.35;100.00
6034;BME280;3045;43.226;27.858;2023-01-08T00:22:58;5760.38;;;4.46;100.00
6034;BME280;3045;43.226;27.858;2023-01-08T00:25:24;6710.91;;;4.43;100.00
6034;BME280;3045;43.226;27.858;2023-01-08T00:27:51;8929.19;;;4.35;100.00
6034;BME280;3045;43.226;27.858;2023-01-08T00:30:18;8931.34;;;4.46;100.00
6034;BME280;3045;43.226;27.858;2023-01-08T00:32:46;7024.97;;;4.25;100.00
6034;BME280;3045;43.226;27.858;2023-01-08T00:35:13;7023.97;;;4.19;100.00
6034;BME280;3045;43.226;27.858;2023-01-08T00:37:40;7341.50;;;4.23;100.00
6034;BME280;3045;43.226;27.858;2023-01-08T00:40:08;7966.50;;;3.72;100.00
6034;BME280;3045;43.226;27.858;2023-01-08T00:42:35;3853.47;;;3.94;100.00
6034;BME280;3045;43.226;27.858;2023-01-08T00:45:02;2905.19;;;4.04;100.00
6034;BME280;3045;43.226;27.858;2023-01-08T00:47:29;2272.81;;;4.10;100.00
6034;BME280;3045;43.226;27.858;2023-01-08T00:49:57;2271.34;;;3.93;100.00
6034;BME280;3045;43.226;27.858;2023-01-08T00:52:25;375.69;;;4.25;100.00
6034;BME280;3045;43.226;27.858;2023-01-08T00:54:51;-889.38;;;4.23;100.00
6034;BME280;3045;43.226;27.858;2023-01-08T00:57:21;-4681.97;;;4.48;100.00
6034;BME280;3045;43.226;27.858;2023-01-08T00:59:48;-6893.72;;;4.63;100.00
6034;BME280;3045;43.226;27.858;2023-01-08T01:02:15;-8789.47;;;4.79;100.00
6034;BME280;3045;43.226;27.858;2023-01-08T01:04:42;-8790.63;;;4.91;100.00
6034;BME280;3045;43.226;27.858;2023-01-08T01:07:10;-9106.69;;;4.94;100.00
6034;BME280;3045;43.226;27.858;2023-01-08T01:09:37;-9740.59;;;5.17;100.00
6034;BME280;3045;43.226;27.858;2023-01-08T01:12:04;-7528.44;;;5.06;100.00
6034;BME280;3045;43.226;27.858;2023-01-08T01:14:31;-5316.63;;;5.25;100.00
6034;BME280;3045;43.226;27.858;2023-01-08T01:16:58;696.72;;;5.02;100.00
6034;BME280;3045;43.226;27.858;2023-01-08T01:19:24;3231.47;;;5.01;100.00
6034;BME280;3045;43.226;27.858;2023-01-08T01:21:51;7036.63;;;4.96;100.00
6034;BME280;3045;43.226;27.858;2023-01-08T01:24:20;8623.03;;;4.93;100.00
6034;BME280;3045;43.226;27.858;2023-01-08T01:26:49;13383.59;;;4.76;100.00
6034;BME280;3045;43.226;27.858;2023-01-08T01:29:16;7984.00;;;4.70;100.00
6034;BME280;3045;43.226;27.858;2023-01-08T01:31:43;1326.31;;;4.47;100.00
6034;BME280;3045;43.226;27.858;2023-01-08T01:34:10;-5630.44;;;4.67;100.00
6034;BME280;3045;43.226;27.858;2023-01-08T01:36:37;-7527.41;;;4.92;100.00
6034;BME280;3045;43.226;27.858;2023-01-08T01:39:04;-8158.38;;;4.83;100.00
6034;BME280;3045;43.226;27.858;2023-01-08T01:41:36;-5315.09;;;4.83;100.00
6034;BME280;3045;43.226;27.858;2023-01-08T01:44:38;-3734.50;;;4.91;100.00
6034;BME280;3045;43.226;27.858;2023-01-08T01:47:14;-1203.59;;;4.87;100.00
6034;BME280;3045;43.226;27.858;2023-01-08T01:49:47;-1203.47;;;4.92;100.00
6034;BME280;3045;43.226;27.858;2023-01-08T01:52:15;-1203.31;;;4.97;100.00
6034;BME280;3045;43.226;27.858;2023-01-08T01:54:42;-1836.59;;;4.83;100.00
6034;BME280;3045;43.226;27.858;2023-01-08T01:57:11;-3418.22;;;4.93;100.00
6034;BME280;3045;43.226;27.858;2023-01-08T01:59:37;-5316.41;;;5.20;100.00
6034;BME280;3045;43.226;27.858;2023-01-08T02:02:04;-4367.53;;;5.19;100.00
6034;BME280;3045;43.226;27.858;2023-01-08T02:04:31;-3418.09;;;4.71;100.00
6034;BME280;3045;43.226;27.858;2023-01-08T02:07:02;-3734.78;;;5.19;100.00
6034;BME280;3045;43.226;27.858;2023-01-08T02:09:39;-2468.94;;;5.24;100.00
6034;BME280;3045;43.226;27.858;2023-01-08T02:12:15;-2152.34;;;5.27;100.00
6034;BME280;3045;43.226;27.858;2023-01-08T02:14:51;-2785.44;;;5.28;100.00
6034;BME280;3045;43.226;27.858;2023-01-08T02:17:24;-3101.94;;;5.25;100.00
6034;BME280;3045;43.226;27.858;2023-01-08T02:19:55;-4051.38;;;5.31;100.00
6034;BME280;3045;43.226;27.858;2023-01-08T02:22:34;-5632.91;;;5.26;100.00
6034;BME280;3045;43.226;27.858;2023-01-08T02:25:10;-7215.31;;;5.49;100.00
6034;BME280;3045;43.226;27.858;2023-01-08T02:27:44;-7848.06;;;5.54;100.00
6034;BME280;3045;43.226;27.858;2023-01-08T02:30:14;-7215.88;;;5.58;100.00
6034;BME280;3045;43.226;27.858;2023-01-08T02:32:41;-4368.44;;;5.63;100.00
6034;BME280;3045;43.226;27.858;2023-01-08T02:35:09;-4052.00;;;5.70;100.00
6034;BME280;3045;43.226;27.858;2023-01-08T02:37:36;-3101.97;;;5.58;100.00
6034;BME280;3045;43.226;27.858;2023-01-08T02:40:11;-4684.34;;;5.38;100.00
6034;BME280;3045;43.226;27.858;2023-01-08T02:42:44;-8164.66;;;5.59;100.00
6034;BME280;3045;43.226;27.858;2023-01-08T02:45:27;-9430.28;;;5.71;100.00
6034;BME280;3045;43.226;27.858;2023-01-08T02:48:02;-8480.88;;;5.60;100.00
6034;BME280;3045;43.226;27.858;2023-01-08T02:50:34;-6899.16;;;5.50;100.00
6034;BME280;3045;43.226;27.858;2023-01-08T02:53:10;-6899.25;;;5.51;100.00
6034;BME280;3045;43.226;27.858;2023-01-08T02:55:39;-7532.59;;;5.64;100.00
6034;BME280;3045;43.226;27.858;2023-01-08T02:58:09;-7532.97;;;5.69;100.00
6034;BME280;3045;43.226;27.858;2023-01-08T03:00:38;-7533.63;;;5.78;100.00
6034;BME280;3045;43.226;27.858;2023-01-08T03:03:10;-7217.16;;;5.76;100.00
6034;BME280;3045;43.226;27.858;2023-01-08T03:05:41;-7534.06;;;5.84;100.00
6034;BME280;3045;43.226;27.858;2023-01-08T03:08:10;-8168.31;;;6.04;100.00
6034;BME280;3045;43.226;27.858;2023-01-08T03:10:39;-6902.28;;;6.01;100.00
6034;BME280;3045;43.226;27.858;2023-01-08T03:13:12;-5002.50;;;5.94;100.00
6034;BME280;3045;43.226;27.858;2023-01-08T03:15:45;-5001.88;;;5.74;100.00
6034;BME280;3045;43.226;27.858;2023-01-08T03:18:19;-4051.81;;;5.59;100.00
6034;BME280;3045;43.226;27.858;2023-01-08T03:20:48;-3101.97;;;5.66;100.00
6034;BME280;3045;43.226;27.858;2023-01-08T03:23:17;-2785.25;;;5.67;100.00
6034;BME280;3045;43.226;27.858;2023-01-08T03:25:46;-3101.97;;;5.66;100.00
6034;BME280;3045;43.226;27.858;2023-01-08T03:28:19;-4051.88;;;5.62;100.00
6034;BME280;3045;43.226;27.858;2023-01-08T03:30:49;-3418.66;;;5.63;100.00
6034;BME280;3045;43.226;27.858;2023-01-08T03:33:20;-2785.25;;;5.70;100.00
6034;BME280;3045;43.226;27.858;2023-01-08T03:35:52;-2468.44;;;5.74;100.00
6034;BME280;3045;43.226;27.858;2023-01-08T03:38:22;-1518.41;;;5.55;100.00
6034;BME280;3045;43.226;27.858;2023-01-08T03:40:52;-2468.56;;;5.61;100.00
6034;BME280;3045;43.226;27.858;2023-01-08T03:43:25;-2151.63;;;5.74;100.00
6034;BME280;3045;43.226;27.858;2023-01-08T03:45:55;-3418.75;;;5.81;100.00
6034;BME280;3045;43.226;27.858;2023-01-08T03:48:24;-4685.72;;;5.90;100.00
6034;BME280;3045;43.226;27.858;2023-01-08T03:50:52;-4685.97;;;6.01;100.00
6034;BME280;3045;43.226;27.858;2023-01-08T03:53:21;-4369.28;;;6.03;100.00
6034;BME280;3045;43.226;27.858;2023-01-08T03:55:47;-6586.41;;;6.12;100.00
6034;BME280;3045;43.226;27.858;2023-01-08T03:58:14;-8486.50;;;6.24;100.00
6034;BME280;3045;43.226;27.858;2023-01-08T04:00:43;-9117.31;;;6.03;100.00
6034;BME280;3045;43.226;27.858;2023-01-08T04:03:09;-10069.91;;;6.37;100.00
6034;BME280;3045;43.226;27.858;2023-01-08T04:05:36;-9119.78;;;6.28;100.00
6034;BME280;3045;43.226;27.858;2023-01-08T04:08:04;-8168.91;;;6.11;100.00
6034;BME280;3045;43.226;27.858;2023-01-08T04:10:30;-4052.38;;;5.93;100.00
6034;BME280;3045;43.226;27.858;2023-01-08T04:12:58;-4052.31;;;5.89;100.00
6034;BME280;3045;43.226;27.858;2023-01-08T04:15:24;-3735.50;;;5.84;100.00
6034;BME280;3045;43.226;27.858;2023-01-08T04:17:53;-4051.81;;;5.59;100.00
6034;BME280;3045;43.226;27.858;2023-01-08T04:20:20;-6899.78;;;5.60;100.00
6034;BME280;3045;43.226;27.858;2023-01-08T04:22:47;-7532.16;;;5.58;100.00
6034;BME280;3045;43.226;27.858;2023-01-08T04:25:14;-7217.88;;;5.87;100.00
6034;BME280;3045;43.226;27.858;2023-01-08T04:27:41;-5951.81;;;5.83;100.00
6034;BME280;3045;43.226;27.858;2023-01-08T04:30:09;-6267.50;;;5.68;100.00
6034;BME280;3045;43.226;27.858;2023-01-08T04:32:36;-6900.38;;;5.70;100.00
6034;BME280;3045;43.226;27.858;2023-01-08T04:35:05;-7218.22;;;5.92;100.00
6034;BME280;3045;43.226;27.858;2023-01-08T04:37:32;-5318.59;;;5.79;100.00
6034;BME280;3045;43.226;27.858;2023-01-08T04:39:58;-5635.22;;;5.81;100.00
6034;BME280;3045;43.226;27.858;2023-01-08T04:42:25;-5002.19;;;5.84;100.00
6034;BME280;3045;43.226;27.858;2023-01-08T04:44:53;-3418.81;;;5.92;100.00
6034;BME280;3045;43.226;27.858;2023-01-08T04:47:20;-4369.16;;;5.96;100.00
6034;BME280;3045;43.226;27.858;2023-01-08T04:49:47;-4686.06;;;6.04;100.00
6034;BME280;3045;43.226;27.858;2023-01-08T04:52:15;-3735.78;;;6.10;100.00
6034;BME280;3045;43.226;27.858;2023-01-08T04:54:42;-3735.75;;;6.07;100.00
6034;BME280;3045;43.226;27.858;2023-01-08T04:57:08;-4369.28;;;6.03;100.00
6034;BME280;3045;43.226;27.858;2023-01-08T04:59:38;-6268.75;;;5.91;100.00
6034;BME280;3045;43.226;27.858;2023-01-08T05:02:04;-6901.53;;;5.88;100.00
6034;BME280;3045;43.226;27.858;2023-01-08T05:04:31;-6585.19;;;5.90;100.00
6034;BME280;3045;43.226;27.858;2023-01-08T05:06:58;-6267.63;;;5.70;100.00
6034;BME280;3045;43.226;27.858;2023-01-08T05:09:26;-7534.06;;;5.84;100.00
6034;BME280;3045;43.226;27.858;2023-01-08T05:11:53;-7848.94;;;5.65;100.00
6034;BME280;3045;43.226;27.858;2023-01-08T05:14:20;-9116.13;;;5.91;100.00
6034;BME280;3045;43.226;27.858;2023-01-08T05:16:47;-9116.81;;;5.98;100.00
6034;BME280;3045;43.226;27.858;2023-01-08T05:19:14;-9750.34;;;6.08;100.00
6034;BME280;3045;43.226;27.858;2023-01-08T05:21:41;-9118.00;;;6.10;100.00
6034;BME280;3045;43.226;27.858;2023-01-08T05:24:08;-9118.09;;;6.11;100.00
6034;BME280;3045;43.226;27.858;2023-01-08T05:26:36;-9120.19;;;6.32;100.00
6034;BME280;3045;43.226;27.858;2023-01-08T05:29:03;-8804.75;;;6.43;100.00
6034;BME280;3045;43.226;27.858;2023-01-08T05:31:30;-8172.09;;;6.50;100.00
6034;BME280;3045;43.226;27.858;2023-01-08T05:33:57;-7222.28;;;6.53;100.00
6034;BME280;3045;43.226;27.858;2023-01-08T05:36:25;-5955.28;;;6.58;100.00
6034;BME280;3045;43.226;27.858;2023-01-08T05:38:52;-5954.94;;;6.51;100.00
6034;BME280;3045;43.226;27.858;2023-01-08T05:41:19;-5954.75;;;6.46;100.00
6034;BME280;3045;43.226;27.858;2023-01-08T05:43:47;-6588.75;;;6.53;100.00
6034;BME280;3045;43.226;27.858;2023-01-08T05:46:14;-6270.69;;;6.29;100.00
6034;BME280;3045;43.226;27.858;2023-01-08T05:48:41;-7220.81;;;6.31;100.00
6034;BME280;3045;43.226;27.858;2023-01-08T05:51:08;-7537.19;;;6.28;100.00
6034;BME280;3045;43.226;27.858;2023-01-08T05:53:35;-8488.53;;;6.48;100.00
6034;BME280;3045;43.226;27.858;2023-01-08T05:56:03;-8803.16;;;6.26;100.00
6034;BME280;3045;43.226;27.858;2023-01-08T05:58:30;-10387.91;;;6.51;100.00
6034;BME280;3045;43.226;27.858;2023-01-08T06:01:02;-9437.03;;;6.36;100.00
6034;BME280;3045;43.226;27.858;2023-01-08T06:03:29;-10071.91;;;6.55;100.00
6034;BME280;3045;43.226;27.858;2023-01-08T06:06:00;-9439.63;;;6.62;100.00
6034;BME280;3045;43.226;27.858;2023-01-08T06:08:28;-9123.09;;;6.62;100.00
6034;BME280;3045;43.226;27.858;2023-01-08T06:10:58;-9757.97;;;6.78;100.00
6034;BME280;3045;43.226;27.858;2023-01-08T06:13:25;-9758.63;;;6.84;100.00
6034;BME280;3045;43.226;27.858;2023-01-08T06:15:52;-10075.22;;;6.84;100.00
6034;BME280;3045;43.226;27.858;2023-01-08T06:18:20;-10706.66;;;6.70;100.00
6034;BME280;3045;43.226;27.858;2023-01-08T06:20:47;-12925.28;;;6.95;100.00
6034;BME280;3045;43.226;27.858;2023-01-08T06:23:13;-13562.13;;;7.19;100.00
6034;BME280;3045;43.226;27.858;2023-01-08T06:25:40;-13565.63;;;7.40;100.00
6034;BME280;3045;43.226;27.858;2023-01-08T06:28:07;-13885.16;;;7.57;100.00
6034;BME280;3045;43.226;27.858;2023-01-08T06:30:34;-14204.47;;;7.72;100.00
6034;BME280;3045;43.226;27.858;2023-01-08T06:33:01;-14842.16;;;7.95;100.00
6034;BME280;3045;43.226;27.858;2023-01-08T06:35:29;-16113.38;;;8.17;100.00
6034;BME280;3045;43.226;27.858;2023-01-08T06:37:56;-16116.34;;;8.31;100.00
6034;BME280;3045;43.226;27.858;2023-01-08T06:40:23;-15803.88;;;8.52;100.00
6034;BME280;3045;43.226;27.858;2023-01-08T06:42:51;-15492.16;;;8.79;100.00
6034;BME280;3045;43.226;27.858;2023-01-08T06:45:18;-15180.03;;;9.04;100.00
6034;BME280;3045;43.226;27.858;2023-01-08T06:47:44;-14232.19;;;9.27;100.00
6034;BME280;3045;43.226;27.858;2023-01-08T06:50:11;-12329.97;;;9.48;100.00
6034;BME280;3045;43.226;27.858;2023-01-08T06:52:40;-3739.09;;;9.45;100.00
6034;BME280;3045;43.226;27.858;2023-01-08T06:55:07;-551.66;;;9.47;100.00
6034;BME280;3045;43.226;27.858;2023-01-08T06:57:34;5193.34;;;9.45;100.00
6034;BME280;3045;43.226;27.858;2023-01-08T07:00:05;12226.13;;;9.35;100.00
6034;BME280;3045;43.226;27.858;2023-01-08T07:02:32;18298.09;;;8.91;100.00
6034;BME280;3045;43.226;27.858;2023-01-08T07:04:59;11898.19;;;9.02;100.00
6034;BME280;3045;43.226;27.858;2023-01-08T07:07:26;10939.25;;;9.05;100.00
6034;BME280;3045;43.226;27.858;2023-01-08T07:09:54;11582.66;;;9.21;100.00
6034;BME280;3045;43.226;27.858;2023-01-08T07:12:21;15747.16;;;9.29;100.00
6034;BME280;3045;43.226;27.858;2023-01-08T07:14:47;18306.38;;;9.15;100.00
6034;BME280;3045;43.226;27.858;2023-01-08T07:17:14;19591.66;;;9.23;100.00
6034;BME280;3045;43.226;27.858;2023-01-08T07:19:41;21198.47;;;9.30;100.00
6034;BME280;3045;43.226;27.858;2023-01-08T07:22:08;21837.31;;;9.22;100.00
6034;BME280;3045;43.226;27.858;2023-01-08T07:24:35;24412.63;;;9.37;100.00
6034;BME280;3045;43.226;27.858;2023-01-08T07:27:04;24734.34;;;9.38;100.00
6034;BME280;3045;43.226;27.858;2023-01-08T07:29:30;21843.84;;;9.38;100.00
6034;BME280;3045;43.226;27.858;2023-01-08T07:31:57;19923.91;;;9.53;100.00
6034;BME280;3045;43.226;27.858;2023-01-08T07:34:24;15784.47;;;10.51;100.00
6034;BME280;3045;43.226;27.858;2023-01-08T07:36:51;57286.78;;;12.10;100.00
6034;BME280;3045;43.226;27.858;2023-01-08T07:39:18;149472.94;;;13.66;100.00
6034;BME280;3045;43.226;27.858;2023-01-08T07:41:45;149635.19;;;14.31;100.00
6034;BME280;3045;43.226;27.858;2023-01-08T07:44:13;149633.91;;;14.31;100.00
6034;BME280;3045;43.226;27.858;2023-01-08T07:46:40;149625.06;;;14.27;100.00
6034;BME280;3045;43.226;27.858;2023-01-08T07:49:07;149536.34;;;13.92;100.00
6034;BME280;3045;43.226;27.858;2023-01-08T07:51:34;149434.94;;;13.51;100.00
6034;BME280;3045;43.226;27.858;2023-01-08T07:54:00;149396.97;;;13.36;100.00
6034;BME280;3045;43.226;27.858;2023-01-08T07:56:27;149370.34;;;13.25;100.00
6034;BME280;3045;43.226;27.858;2023-01-08T07:58:54;149319.63;;;13.05;100.00
6034;BME280;3045;43.226;27.858;2023-01-08T08:01:23;149294.28;;;12.95;100.00
6034;BME280;3045;43.226;27.858;2023-01-08T08:03:50;149510.97;;;13.82;100.00
6034;BME280;3045;43.226;27.858;2023-01-08T08:06:17;149811.53;;;15.01;100.00
6034;BME280;3045;43.226;27.858;2023-01-08T08:08:44;149849.56;;;15.17;100.00
6034;BME280;3045;43.226;27.858;2023-01-08T08:11:11;150145.31;;;16.34;100.00
6034;BME280;3045;43.226;27.858;2023-01-08T08:13:38;150626.97;;;18.26;100.00
6034;BME280;3045;43.226;27.858;2023-01-08T08:16:09;150936.16;;;19.49;100.00
6034;BME280;3045;43.226;27.858;2023-01-08T08:18:41;151025.28;;;19.84;100.00
6034;BME280;3045;43.226;27.858;2023-01-08T08:21:07;150896.69;;;19.33;100.00
6034;BME280;3045;43.226;27.858;2023-01-08T08:23:34;150927.28;;;19.45;100.00
6034;BME280;3045;43.226;27.858;2023-01-08T08:26:02;150968.00;;;19.61;100.00
6034;BME280;3045;43.226;27.858;2023-01-08T08:28:29;151001.09;;;19.75;100.00
6034;BME280;3045;43.226;27.858;2023-01-08T08:30:56;150990.91;;;19.71;100.00
6034;BME280;3045;43.226;27.858;2023-01-08T08:33:23;150744.00;;;18.73;100.00
6034;BME280;3045;43.226;27.858;2023-01-08T08:35:51;150576.13;;;18.06;100.00
6034;BME280;3045;43.226;27.858;2023-01-08T08:38:18;150339.69;;;17.12;100.00
6034;BME280;3045;43.226;27.858;2023-01-08T08:40:45;150205.06;;;16.58;100.00
6034;BME280;3045;43.226;27.858;2023-01-08T08:43:12;150119.94;;;16.24;100.00
6034;BME280;3045;43.226;27.858;2023-01-08T08:45:38;150352.41;;;17.17;100.00
6034;BME280;3045;43.226;27.858;2023-01-08T08:48:06;150760.56;;;18.79;100.00
6034;BME280;3045;43.226;27.858;2023-01-08T08:50:33;151016.38;;;19.81;100.00
6034;BME280;3045;43.226;27.858;2023-01-08T08:53:02;151151.38;;;20.34;100.00
6034;BME280;3045;43.226;27.858;2023-01-08T08:55:30;151602.53;;;22.13;91.36
6034;BME280;3045;43.226;27.858;2023-01-08T08:58:02;151881.91;;;23.24;82.10
6034;BME280;3045;43.226;27.858;2023-01-08T09:00:29;152110.38;;;24.14;76.23
6034;BME280;3045;43.226;27.858;2023-01-08T09:02:56;152236.88;;;24.65;69.17
6034;BME280;3045;43.226;27.858;2023-01-08T09:05:23;152272.63;;;24.79;67.72
6034;BME280;3045;43.226;27.858;2023-01-08T09:07:50;152294.38;;;24.87;66.38
6034;BME280;3045;43.226;27.858;2023-01-08T09:10:20;152501.44;;;25.69;62.48
6034;BME280;3045;43.226;27.858;2023-01-08T09:12:47;152619.03;;;26.16;57.22
6034;BME280;3045;43.226;27.858;2023-01-08T09:15:13;152345.50;;;25.08;59.89
6034;BME280;3045;43.226;27.858;2023-01-08T09:17:40;152263.69;;;24.75;62.61
6034;BME280;3045;43.226;27.858;2023-01-08T09:20:09;152446.41;;;25.47;59.42
6034;BME280;3045;43.226;27.858;2023-01-08T09:22:36;152685.56;;;26.42;56.22
6034;BME280;3045;43.226;27.858;2023-01-08T09:25:04;152449.00;;;25.48;57.62
6034;BME280;3045;43.226;27.858;2023-01-08T09:27:32;152395.31;;;25.27;60.82
6034;BME280;3045;43.226;27.858;2023-01-08T09:29:59;152236.88;;;24.65;61.82
6034;BME280;3045;43.226;27.858;2023-01-08T09:32:25;152254.75;;;24.72;61.54
6034;BME280;3045;43.226;27.858;2023-01-08T09:34:52;152190.91;;;24.46;60.48
6034;BME280;3045;43.226;27.858;2023-01-08T09:37:19;152601.13;;;26.09;54.42
6034;BME280;3045;43.226;27.858;2023-01-08T09:39:47;152808.34;;;26.91;49.59
6034;BME280;3045;43.226;27.858;2023-01-08T09:42:15;152355.72;;;25.12;53.10
6034;BME280;3045;43.226;27.858;2023-01-08T09:44:49;152452.84;;;25.50;55.06
6034;BME280;3045;43.226;27.858;2023-01-08T09:47:24;152633.16;;;26.21;51.39
6034;BME280;3045;43.226;27.858;2023-01-08T09:49:56;152322.50;;;24.98;49.34
6034;BME280;3045;43.226;27.858;2023-01-08T09:52:24;152083.59;;;24.04;52.87
6034;BME280;3045;43.226;27.858;2023-01-08T09:54:51;152093.81;;;24.08;53.95
6034;BME280;3045;43.226;27.858;2023-01-08T09:57:19;151921.44;;;23.40;56.11
6034;BME280;3045;43.226;27.858;2023-01-08T09:59:48;151949.56;;;23.51;58.28
6034;BME280;3045;43.226;27.858;2023-01-08T10:02:17;151967.47;;;23.58;56.20
6034;BME280;3045;43.226;27.858;2023-01-08T10:04:45;151668.84;;;22.40;60.05
6034;BME280;3045;43.226;27.858;2023-01-08T10:07:20;151695.59;;;22.50;59.19
6034;BME280;3045;43.226;27.858;2023-01-08T10:09:50;151412.56;;;21.38;61.75
6034;BME280;3045;43.226;27.858;2023-01-08T10:12:21;151515.78;;;21.79;60.10
6034;BME280;3045;43.226;27.858;2023-01-08T10:14:51;151503.03;;;21.74;61.04
6034;BME280;3045;43.226;27.858;2023-01-08T10:17:25;151523.44;;;21.82;62.50
6034;BME280;3045;43.226;27.858;2023-01-08T10:19:53;151607.59;;;22.15;62.62
6034;BME280;3045;43.226;27.858;2023-01-08T10:22:22;151468.59;;;21.60;63.36
6034;BME280;3045;43.226;27.858;2023-01-08T10:24:50;151705.81;;;22.54;60.58
6034;BME280;3045;43.226;27.858;2023-01-08T10:27:19;151724.94;;;22.62;60.03
6034;BME280;3045;43.226;27.858;2023-01-08T10:29:48;151376.88;;;21.24;66.99
6034;BME280;3045;43.226;27.858;2023-01-08T10:32:27;151672.63;;;22.41;64.27
6034;BME280;3045;43.226;27.858;2023-01-08T10:34:56;151438.03;;;21.48;72.74
6034;BME280;3045;43.226;27.858;2023-01-08T10:37:26;151449.50;;;21.53;71.99
6034;BME280;3045;43.226;27.858;2023-01-08T10:39:57;151473.72;;;21.62;71.38
6034;BME280;3045;43.226;27.858;2023-01-08T10:42:25;151659.94;;;22.36;65.96
6034;BME280;3045;43.226;27.858;2023-01-08T10:44:55;151534.91;;;21.86;69.11
6034;BME280;3045;43.226;27.858;2023-01-08T10:47:27;151012.53;;;19.79;88.09
6034;BME280;3045;43.226;27.858;2023-01-08T10:49:55;151069.84;;;20.02;88.15
6034;BME280;3045;43.226;27.858;2023-01-08T10:52:29;151184.47;;;20.47;87.45
6034;BME280;3045;43.226;27.858;2023-01-08T10:54:58;151164.09;;;20.39;90.24
6034;BME280;3045;43.226;27.858;2023-01-08T10:57:36;151077.47;;;20.05;93.70
6034;BME280;3045;43.226;27.858;2023-01-08T11:00:03;150894.13;;;19.32;96.59
6034;BME280;3045;43.226;27.858;2023-01-08T11:02:34;151041.81;;;19.91;94.45
6034;BME280;3045;43.226;27.858;2023-01-08T11:05:02;150975.66;;;19.65;94.89
6034;BME280;3045;43.226;27.858;2023-01-08T11:07:32;150794.88;;;18.93;100.00
6034;BME280;3045;43.226;27.858;2023-01-08T11:10:00;150749.13;;;18.75;100.00
6034;BME280;3045;43.226;27.858;2023-01-08T11:12:34;150861.03;;;19.19;100.00
6034;BME280;3045;43.226;27.858;2023-01-08T11:15:02;150815.28;;;19.01;100.00
6034;BME280;3045;43.226;27.858;2023-01-08T11:17:32;150663.88;;;18.41;100.00
6034;BME280;3045;43.226;27.858;2023-01-08T11:20:08;150744.00;;;18.73;100.00
6034;BME280;3045;43.226;27.858;2023-01-08T11:22:35;150375.28;;;17.26;100.00
6034;BME280;3045;43.226;27.858;2023-01-08T11:25:07;150257.13;;;16.79;100.00
6034;BME280;3045;43.226;27.858;2023-01-08T11:27:41;150391.78;;;17.32;100.00
6034;BME280;3045;43.226;27.858;2023-01-08T11:30:12;150388.00;;;17.31;100.00
6034;BME280;3045;43.226;27.858;2023-01-08T11:32:46;150291.44;;;16.93;100.00
6034;BME280;3045;43.226;27.858;2023-01-08T11:35:17;150338.41;;;17.11;100.00
6034;BME280;3045;43.226;27.858;2023-01-08T11:37:49;150436.25;;;17.50;100.00
6034;BME280;3045;43.226;27.858;2023-01-08T11:40:25;150384.16;;;17.29;100.00
6034;BME280;3045;43.226;27.858;2023-01-08T11:43:11;150177.06;;;16.47;100.00
6034;BME280;3045;43.226;27.858;2023-01-08T11:45:54;149906.66;;;15.39;100.00
6034;BME280;3045;43.226;27.858;2023-01-08T11:48:49;149512.25;;;13.82;100.00
6034;BME280;3045;43.226;27.858;2023-01-08T11:51:47;149375.44;;;13.27;100.00
6034;BME280;3045;43.226;27.858;2023-01-08T11:54:33;149243.66;;;12.75;100.00
6034;BME280;3045;43.226;27.858;2023-01-08T11:57:18;149128.44;;;12.29;100.00
6034;BME280;3045;43.226;27.858;2023-01-08T12:00:01;149077.84;;;12.09;100.00
6034;BME280;3045;43.226;27.858;2023-01-08T12:02:49;149067.72;;;12.05;100.00
6034;BME280;3045;43.226;27.858;2023-01-08T12:05:29;140300.44;;;11.96;100.00
6034;BME280;3045;43.226;27.858;2023-01-08T12:08:03;119707.47;;;11.82;100.00
6034;BME280;3045;43.226;27.858;2023-01-08T12:10:47;89954.41;;;11.61;100.00
6034;BME280;3045;43.226;27.858;2023-01-08T12:13:38;64713.81;;;11.41;100.00
6034;BME280;3045;43.226;27.858;2023-01-08T12:16:20;63741.38;;;11.47;100.00
6034;BME280;3045;43.226;27.858;2023-01-08T12:19:04;57521.84;;;11.18;100.00
6034;BME280;3045;43.226;27.858;2023-01-08T12:21:44;64374.84;;;11.30;100.00
6034;BME280;3045;43.226;27.858;2023-01-08T12:24:26;58836.44;;;11.31;100.00
6034;BME280;3045;43.226;27.858;2023-01-08T12:27:05;63069.03;;;11.28;100.00
6034;BME280;3045;43.226;27.858;2023-01-08T12:29:55;66982.47;;;11.28;100.00
6034;BME280;3045;43.226;27.858;2023-01-08T12:32:29;62089.59;;;11.27;100.00
6034;BME280;3045;43.226;27.858;2023-01-08T12:35:07;50353.06;;;10.98;100.00
6034;BME280;3045;43.226;27.858;2023-01-08T12:37:42;40313.88;;;11.10;100.00
6034;BME280;3045;43.226;27.858;2023-01-08T12:40:14;31252.03;;;10.91;100.00
6034;BME280;3045;43.226;27.858;2023-01-08T12:42:44;24477.25;;;10.82;100.00
6034;BME280;3045;43.226;27.858;2023-01-08T12:45:16;24805.47;;;10.95;100.00
6034;BME280;3045;43.226;27.858;2023-01-08T12:47:47;18040.38;;;10.74;100.00
6034;BME280;3045;43.226;27.858;2023-01-08T12:50:26;14506.41;;;10.71;100.00
6034;BME280;3045;43.226;27.858;2023-01-08T12:53:02;8087.41;;;10.43;100.00
6034;BME280;3045;43.226;27.858;2023-01-08T12:55:38;3927.63;;;10.48;100.00
6034;BME280;3045;43.226;27.858;2023-01-08T12:58:16;6170.44;;;10.69;100.00
6034;BME280;3045;43.226;27.858;2023-01-08T13:00:51;9375.47;;;10.77;100.00
6034;BME280;3045;43.226;27.858;2023-01-08T13:03:24;10974.94;;;10.61;100.00
6034;BME280;3045;43.226;27.858;2023-01-08T13:06:04;11296.16;;;10.64;100.00
6034;BME280;3045;43.226;27.858;2023-01-08T13:08:34;13543.94;;;10.73;100.00
6034;BME280;3045;43.226;27.858;2023-01-08T13:11:02;15470.47;;;10.74;100.00
6034;BME280;3045;43.226;27.858;2023-01-08T13:13:32;13218.50;;;10.56;100.00
6034;BME280;3045;43.226;27.858;2023-01-08T13:16:07;13222.25;;;10.70;100.00
6034;BME280;3045;43.226;27.858;2023-01-08T13:18:35;14826.41;;;10.68;100.00